sensor_id;sensor_type;location;lat;lon;timestamp;P1;durP1;ratioP1;P2;durP2;ratioP2
11125;SDS011;5617;54.046;10.676;2023-07-13T00:00:27;3.27;;;1.50;;
11125;SDS011;5617;54.046;10.676;2023-07-13T00:02:36;3.33;;;1.67;;
11125;SDS011;5617;54.046;10.676;2023-07-13T00:04:44;2.67;;;1.50;;
11125;SDS011;5617;54.046;10.676;2023-07-13T00:06:53;1.70;;;1.57;;
11125;SDS011;5617;54.046;10.676;2023-07-13T00:09:02;2.37;;;1.50;;
11125;SDS011;5617;54.046;10.676;2023-07-13T00:11:19;2.37;;;1.67;;
11125;SDS011;5617;54.046;10.676;2023-07-13T00:13:27;4.10;;;1.70;;
11125;SDS011;5617;54.046;10.676;2023-07-13T00:15:35;4.07;;;1.70;;
11125;SDS011;5617;54.046;10.676;2023-07-13T00:17:43;2.93;;;1.80;;
11125;SDS011;5617;54.046;10.676;2023-07-13T00:19:54;2.90;;;1.80;;
11125;SDS011;5617;54.046;10.676;2023-07-13T00:22:03;3.33;;;1.80;;
11125;SDS011;5617;54.046;10.676;2023-07-13T00:24:17;2.50;;;1.60;;
11125;SDS011;5617;54.046;10.676;2023-07-13T00:26:30;2.63;;;1.83;;
11125;SDS011;5617;54.046;10.676;2023-07-13T00:28:39;4.43;;;2.00;;
11125;SDS011;5617;54.046;10.676;2023-07-13T00:30:48;2.53;;;2.10;;
11125;SDS011;5617;54.046;10.676;2023-07-13T00:32:56;2.13;;;1.90;;
11125;SDS011;5617;54.046;10.676;2023-07-13T00:35:22;4.17;;;2.10;;
11125;SDS011;5617;54.046;10.676;2023-07-13T00:37:30;2.67;;;2.00;;
11125;SDS011;5617;54.046;10.676;2023-07-13T00:39:40;3.93;;;2.00;;
11125;SDS011;5617;54.046;10.676;2023-07-13T00:41:48;3.93;;;2.13;;
11125;SDS011;5617;54.046;10.676;2023-07-13T00:43:55;3.63;;;2.37;;
11125;SDS011;5617;54.046;10.676;2023-07-13T00:46:15;3.83;;;2.27;;
11125;SDS011;5617;54.046;10.676;2023-07-13T00:48:26;3.53;;;2.30;;
11125;SDS011;5617;54.046;10.676;2023-07-13T00:50:36;3.77;;;2.60;;
11125;SDS011;5617;54.046;10.676;2023-07-13T00:52:50;4.40;;;2.40;;
11125;SDS011;5617;54.046;10.676;2023-07-13T00:55:02;4.00;;;2.40;;
11125;SDS011;5617;54.046;10.676;2023-07-13T00:57:11;3.30;;;2.17;;
11125;SDS011;5617;54.046;10.676;2023-07-13T00:59:21;3.63;;;2.40;;
11125;SDS011;5617;54.046;10.676;2023-07-13T01:01:31;5.77;;;2.47;;
11125;SDS011;5617;54.046;10.676;2023-07-13T01:03:39;4.93;;;2.30;;
11125;SDS011;5617;54.046;10.676;2023-07-13T01:05:48;3.97;;;2.80;;
11125;SDS011;5617;54.046;10.676;2023-07-13T01:07:58;4.70;;;2.40;;
11125;SDS011;5617;54.046;10.676;2023-07-13T01:10:09;3.03;;;2.33;;
11125;SDS011;5617;54.046;10.676;2023-07-13T01:12:36;5.00;;;2.83;;
11125;SDS011;5617;54.046;10.676;2023-07-13T01:14:44;4.20;;;2.60;;
11125;SDS011;5617;54.046;10.676;2023-07-13T01:16:53;2.43;;;2.20;;
11125;SDS011;5617;54.046;10.676;2023-07-13T01:19:01;4.50;;;2.27;;
11125;SDS011;5617;54.046;10.676;2023-07-13T01:21:16;4.43;;;2.47;;
11125;SDS011;5617;54.046;10.676;2023-07-13T01:23:25;2.80;;;2.57;;
11125;SDS011;5617;54.046;10.676;2023-07-13T01:25:35;4.67;;;2.60;;
11125;SDS011;5617;54.046;10.676;2023-07-13T01:27:44;5.27;;;2.47;;
11125;SDS011;5617;54.046;10.676;2023-07-13T01:29:52;4.33;;;2.70;;
11125;SDS011;5617;54.046;10.676;2023-07-13T01:32:11;3.97;;;2.77;;
11125;SDS011;5617;54.046;10.676;2023-07-13T01:34:21;4.87;;;2.77;;
11125;SDS011;5617;54.046;10.676;2023-07-13T01:36:31;3.97;;;2.80;;
11125;SDS011;5617;54.046;10.676;2023-07-13T01:38:39;4.80;;;2.90;;
11125;SDS011;5617;54.046;10.676;2023-07-13T01:40:50;3.47;;;2.73;;
11125;SDS011;5617;54.046;10.676;2023-07-13T01:43:00;3.70;;;2.60;;
11125;SDS011;5617;54.046;10.676;2023-07-13T01:45:08;3.27;;;2.70;;
11125;SDS011;5617;54.046;10.676;2023-07-13T01:47:19;2.83;;;2.63;;
11125;SDS011;5617;54.046;10.676;2023-07-13T01:49:27;5.20;;;2.60;;
11125;SDS011;5617;54.046;10.676;2023-07-13T01:51:36;3.33;;;2.37;;
11125;SDS011;5617;54.046;10.676;2023-07-13T01:53:44;3.97;;;2.43;;
11125;SDS011;5617;54.046;10.676;2023-07-13T01:55:52;3.03;;;2.73;;
11125;SDS011;5617;54.046;10.676;2023-07-13T01:58:00;3.57;;;2.77;;
11125;SDS011;5617;54.046;10.676;2023-07-13T02:00:09;7.03;;;2.90;;
11125;SDS011;5617;54.046;10.676;2023-07-13T02:02:18;4.73;;;2.90;;
11125;SDS011;5617;54.046;10.676;2023-07-13T02:04:26;4.13;;;2.70;;
11125;SDS011;5617;54.046;10.676;2023-07-13T02:06:37;4.47;;;2.87;;
11125;SDS011;5617;54.046;10.676;2023-07-13T02:08:45;2.93;;;2.70;;
11125;SDS011;5617;54.046;10.676;2023-07-13T02:10:53;4.53;;;3.00;;
11125;SDS011;5617;54.046;10.676;2023-07-13T02:13:01;4.13;;;3.17;;
11125;SDS011;5617;54.046;10.676;2023-07-13T02:15:11;5.33;;;3.50;;
11125;SDS011;5617;54.046;10.676;2023-07-13T02:17:23;4.37;;;3.20;;
11125;SDS011;5617;54.046;10.676;2023-07-13T02:19:31;4.80;;;2.90;;
11125;SDS011;5617;54.046;10.676;2023-07-13T02:21:41;4.80;;;3.13;;
11125;SDS011;5617;54.046;10.676;2023-07-13T02:23:50;4.20;;;3.03;;
11125;SDS011;5617;54.046;10.676;2023-07-13T02:25:59;3.00;;;2.70;;
11125;SDS011;5617;54.046;10.676;2023-07-13T02:28:10;5.10;;;2.60;;
11125;SDS011;5617;54.046;10.676;2023-07-13T02:30:19;4.43;;;3.20;;
11125;SDS011;5617;54.046;10.676;2023-07-13T02:32:28;4.37;;;3.03;;
11125;SDS011;5617;54.046;10.676;2023-07-13T02:34:37;4.07;;;3.20;;
11125;SDS011;5617;54.046;10.676;2023-07-13T02:36:46;3.60;;;2.90;;
11125;SDS011;5617;54.046;10.676;2023-07-13T02:38:54;5.53;;;3.10;;
11125;SDS011;5617;54.046;10.676;2023-07-13T02:41:02;4.20;;;3.10;;
11125;SDS011;5617;54.046;10.676;2023-07-13T02:43:10;3.50;;;3.00;;
11125;SDS011;5617;54.046;10.676;2023-07-13T02:45:19;3.67;;;2.93;;
11125;SDS011;5617;54.046;10.676;2023-07-13T02:47:27;4.37;;;2.60;;
11125;SDS011;5617;54.046;10.676;2023-07-13T02:49:34;3.17;;;2.87;;
11125;SDS011;5617;54.046;10.676;2023-07-13T02:51:42;3.97;;;2.70;;
11125;SDS011;5617;54.046;10.676;2023-07-13T02:53:51;3.33;;;2.57;;
11125;SDS011;5617;54.046;10.676;2023-07-13T02:55:59;2.87;;;2.53;;
11125;SDS011;5617;54.046;10.676;2023-07-13T02:58:10;5.87;;;3.03;;
11125;SDS011;5617;54.046;10.676;2023-07-13T03:00:18;3.87;;;2.83;;
11125;SDS011;5617;54.046;10.676;2023-07-13T03:02:26;4.37;;;2.80;;
11125;SDS011;5617;54.046;10.676;2023-07-13T03:04:35;6.30;;;3.00;;
11125;SDS011;5617;54.046;10.676;2023-07-13T03:06:43;5.97;;;3.07;;
11125;SDS011;5617;54.046;10.676;2023-07-13T03:08:52;4.40;;;3.30;;
11125;SDS011;5617;54.046;10.676;2023-07-13T03:11:04;4.37;;;3.43;;
11125;SDS011;5617;54.046;10.676;2023-07-13T03:13:15;5.50;;;3.30;;
11125;SDS011;5617;54.046;10.676;2023-07-13T03:15:23;4.07;;;3.63;;
11125;SDS011;5617;54.046;10.676;2023-07-13T03:17:31;6.67;;;3.30;;
11125;SDS011;5617;54.046;10.676;2023-07-13T03:19:39;5.30;;;3.27;;
11125;SDS011;5617;54.046;10.676;2023-07-13T03:21:47;6.33;;;3.13;;
11125;SDS011;5617;54.046;10.676;2023-07-13T03:23:56;5.50;;;3.60;;
11125;SDS011;5617;54.046;10.676;2023-07-13T03:26:05;5.30;;;3.10;;
11125;SDS011;5617;54.046;10.676;2023-07-13T03:28:16;3.97;;;3.07;;
11125;SDS011;5617;54.046;10.676;2023-07-13T03:30:24;6.93;;;3.50;;
11125;SDS011;5617;54.046;10.676;2023-07-13T03:32:31;9.23;;;4.07;;
11125;SDS011;5617;54.046;10.676;2023-07-13T03:34:39;4.83;;;3.40;;
11125;SDS011;5617;54.046;10.676;2023-07-13T03:36:47;4.83;;;3.30;;
11125;SDS011;5617;54.046;10.676;2023-07-13T03:38:57;6.67;;;3.20;;
11125;SDS011;5617;54.046;10.676;2023-07-13T03:41:08;3.43;;;3.00;;
11125;SDS011;5617;54.046;10.676;2023-07-13T03:43:16;7.40;;;3.40;;
11125;SDS011;5617;54.046;10.676;2023-07-13T03:45:24;6.07;;;3.23;;
11125;SDS011;5617;54.046;10.676;2023-07-13T03:47:34;4.30;;;2.70;;
11125;SDS011;5617;54.046;10.676;2023-07-13T03:49:43;4.57;;;3.10;;
11125;SDS011;5617;54.046;10.676;2023-07-13T03:51:52;5.60;;;3.40;;
11125;SDS011;5617;54.046;10.676;2023-07-13T03:54:01;7.83;;;3.50;;
11125;SDS011;5617;54.046;10.676;2023-07-13T03:56:10;6.17;;;3.07;;
11125;SDS011;5617;54.046;10.676;2023-07-13T03:58:28;5.20;;;3.00;;
11125;SDS011;5617;54.046;10.676;2023-07-13T04:00:37;8.40;;;2.70;;
11125;SDS011;5617;54.046;10.676;2023-07-13T04:02:45;6.23;;;3.67;;
11125;SDS011;5617;54.046;10.676;2023-07-13T04:04:56;2.80;;;2.60;;
11125;SDS011;5617;54.046;10.676;2023-07-13T04:07:04;5.77;;;3.00;;
11125;SDS011;5617;54.046;10.676;2023-07-13T04:09:13;6.13;;;3.50;;
11125;SDS011;5617;54.046;10.676;2023-07-13T04:11:22;4.47;;;2.67;;
11125;SDS011;5617;54.046;10.676;2023-07-13T04:13:31;6.57;;;3.37;;
11125;SDS011;5617;54.046;10.676;2023-07-13T04:15:40;5.00;;;3.17;;
11125;SDS011;5617;54.046;10.676;2023-07-13T04:17:48;6.67;;;3.00;;
11125;SDS011;5617;54.046;10.676;2023-07-13T04:19:56;5.57;;;3.50;;
11125;SDS011;5617;54.046;10.676;2023-07-13T04:22:04;5.73;;;3.00;;
11125;SDS011;5617;54.046;10.676;2023-07-13T04:24:14;4.63;;;2.97;;
11125;SDS011;5617;54.046;10.676;2023-07-13T04:26:22;5.50;;;2.83;;
11125;SDS011;5617;54.046;10.676;2023-07-13T04:28:31;6.47;;;3.10;;
11125;SDS011;5617;54.046;10.676;2023-07-13T04:30:39;6.63;;;3.53;;
11125;SDS011;5617;54.046;10.676;2023-07-13T04:32:47;6.20;;;3.13;;
11125;SDS011;5617;54.046;10.676;2023-07-13T04:34:55;5.17;;;3.43;;
11125;SDS011;5617;54.046;10.676;2023-07-13T04:37:05;4.03;;;3.47;;
11125;SDS011;5617;54.046;10.676;2023-07-13T04:39:16;4.57;;;3.07;;
11125;SDS011;5617;54.046;10.676;2023-07-13T04:41:24;6.27;;;3.40;;
11125;SDS011;5617;54.046;10.676;2023-07-13T04:43:32;4.03;;;2.90;;
11125;SDS011;5617;54.046;10.676;2023-07-13T04:45:40;5.50;;;3.50;;
11125;SDS011;5617;54.046;10.676;2023-07-13T04:47:48;3.97;;;3.20;;
11125;SDS011;5617;54.046;10.676;2023-07-13T04:49:56;9.67;;;3.10;;
11125;SDS011;5617;54.046;10.676;2023-07-13T04:52:05;3.53;;;2.70;;
11125;SDS011;5617;54.046;10.676;2023-07-13T04:54:23;5.13;;;2.80;;
11125;SDS011;5617;54.046;10.676;2023-07-13T04:56:40;6.30;;;2.90;;
11125;SDS011;5617;54.046;10.676;2023-07-13T04:59:07;4.23;;;2.57;;
11125;SDS011;5617;54.046;10.676;2023-07-13T05:01:33;5.87;;;2.83;;
11125;SDS011;5617;54.046;10.676;2023-07-13T05:03:49;4.63;;;3.03;;
11125;SDS011;5617;54.046;10.676;2023-07-13T05:06:04;3.17;;;2.40;;
11125;SDS011;5617;54.046;10.676;2023-07-13T05:08:13;4.13;;;2.70;;
11125;SDS011;5617;54.046;10.676;2023-07-13T05:10:25;4.40;;;2.80;;
11125;SDS011;5617;54.046;10.676;2023-07-13T05:12:33;3.93;;;3.13;;
11125;SDS011;5617;54.046;10.676;2023-07-13T05:14:42;6.27;;;2.50;;
11125;SDS011;5617;54.046;10.676;2023-07-13T05:16:51;3.77;;;2.57;;
11125;SDS011;5617;54.046;10.676;2023-07-13T05:18:59;6.00;;;2.90;;
11125;SDS011;5617;54.046;10.676;2023-07-13T05:21:08;5.10;;;2.90;;
11125;SDS011;5617;54.046;10.676;2023-07-13T05:23:17;5.73;;;3.00;;
11125;SDS011;5617;54.046;10.676;2023-07-13T05:25:27;5.30;;;3.17;;
11125;SDS011;5617;54.046;10.676;2023-07-13T05:27:35;7.60;;;3.10;;
11125;SDS011;5617;54.046;10.676;2023-07-13T05:29:43;4.50;;;3.07;;
11125;SDS011;5617;54.046;10.676;2023-07-13T05:31:51;3.37;;;2.57;;
11125;SDS011;5617;54.046;10.676;2023-07-13T05:33:59;3.83;;;2.33;;
11125;SDS011;5617;54.046;10.676;2023-07-13T05:36:07;5.93;;;2.50;;
11125;SDS011;5617;54.046;10.676;2023-07-13T05:38:16;4.90;;;2.20;;
11125;SDS011;5617;54.046;10.676;2023-07-13T05:40:24;5.17;;;2.10;;
11125;SDS011;5617;54.046;10.676;2023-07-13T05:42:34;4.20;;;2.10;;
11125;SDS011;5617;54.046;10.676;2023-07-13T05:44:42;5.10;;;2.07;;
11125;SDS011;5617;54.046;10.676;2023-07-13T05:46:50;4.93;;;2.13;;
11125;SDS011;5617;54.046;10.676;2023-07-13T05:48:58;2.50;;;1.50;;
11125;SDS011;5617;54.046;10.676;2023-07-13T05:51:05;5.57;;;1.87;;
11125;SDS011;5617;54.046;10.676;2023-07-13T05:53:14;3.20;;;2.10;;
11125;SDS011;5617;54.046;10.676;2023-07-13T05:55:22;3.30;;;1.80;;
11125;SDS011;5617;54.046;10.676;2023-07-13T05:57:30;4.10;;;1.90;;
11125;SDS011;5617;54.046;10.676;2023-07-13T05:59:40;4.23;;;1.90;;
11125;SDS011;5617;54.046;10.676;2023-07-13T06:01:48;4.00;;;1.90;;
11125;SDS011;5617;54.046;10.676;2023-07-13T06:04:01;3.93;;;1.90;;
11125;SDS011;5617;54.046;10.676;2023-07-13T06:06:10;5.00;;;1.70;;
11125;SDS011;5617;54.046;10.676;2023-07-13T06:08:19;3.30;;;1.60;;
11125;SDS011;5617;54.046;10.676;2023-07-13T06:10:28;4.87;;;2.00;;
11125;SDS011;5617;54.046;10.676;2023-07-13T06:12:40;3.53;;;1.70;;
11125;SDS011;5617;54.046;10.676;2023-07-13T06:14:49;4.97;;;1.97;;
11125;SDS011;5617;54.046;10.676;2023-07-13T06:16:57;3.00;;;1.57;;
11125;SDS011;5617;54.046;10.676;2023-07-13T06:19:05;3.67;;;1.90;;
11125;SDS011;5617;54.046;10.676;2023-07-13T06:21:16;3.30;;;1.80;;
11125;SDS011;5617;54.046;10.676;2023-07-13T06:23:25;6.63;;;1.93;;
11125;SDS011;5617;54.046;10.676;2023-07-13T06:25:34;5.47;;;2.13;;
11125;SDS011;5617;54.046;10.676;2023-07-13T06:27:41;6.40;;;2.30;;
11125;SDS011;5617;54.046;10.676;2023-07-13T06:29:51;6.00;;;1.93;;
11125;SDS011;5617;54.046;10.676;2023-07-13T06:31:59;5.97;;;2.23;;
11125;SDS011;5617;54.046;10.676;2023-07-13T06:34:07;6.53;;;1.90;;
11125;SDS011;5617;54.046;10.676;2023-07-13T06:36:15;6.00;;;2.07;;
11125;SDS011;5617;54.046;10.676;2023-07-13T06:38:25;3.80;;;1.87;;
11125;SDS011;5617;54.046;10.676;2023-07-13T06:40:33;3.60;;;1.80;;
11125;SDS011;5617;54.046;10.676;2023-07-13T06:42:41;8.13;;;2.10;;
11125;SDS011;5617;54.046;10.676;2023-07-13T06:44:51;6.07;;;1.80;;
11125;SDS011;5617;54.046;10.676;2023-07-13T06:46:59;7.47;;;2.03;;
11125;SDS011;5617;54.046;10.676;2023-07-13T06:49:08;7.40;;;1.90;;
11125;SDS011;5617;54.046;10.676;2023-07-13T06:51:16;8.50;;;1.87;;
11125;SDS011;5617;54.046;10.676;2023-07-13T06:53:24;6.03;;;2.07;;
11125;SDS011;5617;54.046;10.676;2023-07-13T06:55:31;4.57;;;2.13;;
11125;SDS011;5617;54.046;10.676;2023-07-13T06:57:39;5.57;;;2.30;;
11125;SDS011;5617;54.046;10.676;2023-07-13T06:59:47;3.50;;;2.07;;
11125;SDS011;5617;54.046;10.676;2023-07-13T07:01:56;7.77;;;2.40;;
11125;SDS011;5617;54.046;10.676;2023-07-13T07:04:05;5.53;;;2.10;;
11125;SDS011;5617;54.046;10.676;2023-07-13T07:06:17;7.60;;;2.50;;
11125;SDS011;5617;54.046;10.676;2023-07-13T07:08:26;4.80;;;2.03;;
11125;SDS011;5617;54.046;10.676;2023-07-13T07:10:34;6.90;;;2.47;;
11125;SDS011;5617;54.046;10.676;2023-07-13T07:12:45;7.97;;;2.47;;
11125;SDS011;5617;54.046;10.676;2023-07-13T07:14:57;7.50;;;2.40;;
11125;SDS011;5617;54.046;10.676;2023-07-13T07:17:06;4.23;;;2.43;;
11125;SDS011;5617;54.046;10.676;2023-07-13T07:19:14;4.43;;;2.20;;
11125;SDS011;5617;54.046;10.676;2023-07-13T07:21:22;6.70;;;2.17;;
11125;SDS011;5617;54.046;10.676;2023-07-13T07:23:30;8.63;;;2.20;;
11125;SDS011;5617;54.046;10.676;2023-07-13T07:25:39;9.53;;;2.10;;
11125;SDS011;5617;54.046;10.676;2023-07-13T07:27:48;6.83;;;2.17;;
11125;SDS011;5617;54.046;10.676;2023-07-13T07:30:01;8.63;;;2.20;;
11125;SDS011;5617;54.046;10.676;2023-07-13T07:32:15;6.67;;;2.10;;
11125;SDS011;5617;54.046;10.676;2023-07-13T07:34:28;7.03;;;2.10;;
11125;SDS011;5617;54.046;10.676;2023-07-13T07:36:37;3.63;;;1.30;;
11125;SDS011;5617;54.046;10.676;2023-07-13T07:38:50;4.60;;;1.67;;
11125;SDS011;5617;54.046;10.676;2023-07-13T07:40:57;3.57;;;1.50;;
11125;SDS011;5617;54.046;10.676;2023-07-13T07:43:14;2.97;;;1.40;;
11125;SDS011;5617;54.046;10.676;2023-07-13T07:45:22;4.77;;;1.27;;
11125;SDS011;5617;54.046;10.676;2023-07-13T07:47:33;6.00;;;1.80;;
11125;SDS011;5617;54.046;10.676;2023-07-13T07:49:41;4.90;;;1.43;;
11125;SDS011;5617;54.046;10.676;2023-07-13T07:51:49;4.63;;;1.67;;
11125;SDS011;5617;54.046;10.676;2023-07-13T07:53:57;5.27;;;1.50;;
11125;SDS011;5617;54.046;10.676;2023-07-13T07:56:06;2.80;;;1.60;;
11125;SDS011;5617;54.046;10.676;2023-07-13T07:58:19;4.77;;;1.60;;
11125;SDS011;5617;54.046;10.676;2023-07-13T08:00:46;3.70;;;1.30;;
11125;SDS011;5617;54.046;10.676;2023-07-13T08:03:00;2.83;;;1.40;;
11125;SDS011;5617;54.046;10.676;2023-07-13T08:05:14;2.67;;;1.30;;
11125;SDS011;5617;54.046;10.676;2023-07-13T08:07:27;4.83;;;1.30;;
11125;SDS011;5617;54.046;10.676;2023-07-13T08:09:37;3.03;;;1.40;;
11125;SDS011;5617;54.046;10.676;2023-07-13T08:11:46;3.03;;;1.37;;
11125;SDS011;5617;54.046;10.676;2023-07-13T08:13:58;4.83;;;1.40;;
11125;SDS011;5617;54.046;10.676;2023-07-13T08:16:07;3.57;;;1.00;;
11125;SDS011;5617;54.046;10.676;2023-07-13T08:18:16;2.80;;;1.10;;
11125;SDS011;5617;54.046;10.676;2023-07-13T08:20:24;1.73;;;1.10;;
11125;SDS011;5617;54.046;10.676;2023-07-13T08:22:33;4.43;;;1.50;;
11125;SDS011;5617;54.046;10.676;2023-07-13T08:24:41;2.53;;;1.17;;
11125;SDS011;5617;54.046;10.676;2023-07-13T08:26:50;2.33;;;1.30;;
11125;SDS011;5617;54.046;10.676;2023-07-13T08:28:58;3.60;;;1.30;;
11125;SDS011;5617;54.046;10.676;2023-07-13T08:31:06;3.40;;;1.10;;
11125;SDS011;5617;54.046;10.676;2023-07-13T08:33:16;3.03;;;1.20;;
11125;SDS011;5617;54.046;10.676;2023-07-13T08:35:25;6.47;;;1.27;;
11125;SDS011;5617;54.046;10.676;2023-07-13T08:37:33;1.67;;;0.80;;
11125;SDS011;5617;54.046;10.676;2023-07-13T08:39:41;2.70;;;1.17;;
11125;SDS011;5617;54.046;10.676;2023-07-13T08:41:49;2.87;;;0.90;;
11125;SDS011;5617;54.046;10.676;2023-07-13T08:44:04;3.47;;;0.80;;
11125;SDS011;5617;54.046;10.676;2023-07-13T08:46:28;1.67;;;0.90;;
11125;SDS011;5617;54.046;10.676;2023-07-13T08:48:44;1.60;;;1.10;;
11125;SDS011;5617;54.046;10.676;2023-07-13T08:50:57;3.57;;;1.10;;
11125;SDS011;5617;54.046;10.676;2023-07-13T08:53:09;3.73;;;1.00;;
11125;SDS011;5617;54.046;10.676;2023-07-13T08:55:21;2.33;;;0.90;;
11125;SDS011;5617;54.046;10.676;2023-07-13T08:57:32;1.70;;;0.90;;
11125;SDS011;5617;54.046;10.676;2023-07-13T08:59:42;2.43;;;0.80;;
11125;SDS011;5617;54.046;10.676;2023-07-13T09:02:05;2.73;;;1.20;;
11125;SDS011;5617;54.046;10.676;2023-07-13T09:04:27;1.27;;;0.80;;
11125;SDS011;5617;54.046;10.676;2023-07-13T09:06:44;1.13;;;0.90;;
11125;SDS011;5617;54.046;10.676;2023-07-13T09:09:00;1.07;;;0.70;;
11125;SDS011;5617;54.046;10.676;2023-07-13T09:11:16;2.43;;;0.87;;
11125;SDS011;5617;54.046;10.676;2023-07-13T09:13:34;1.10;;;0.83;;
11125;SDS011;5617;54.046;10.676;2023-07-13T09:15:51;2.97;;;0.90;;
11125;SDS011;5617;54.046;10.676;2023-07-13T09:18:00;1.37;;;0.80;;
11125;SDS011;5617;54.046;10.676;2023-07-13T09:20:19;1.93;;;1.17;;
11125;SDS011;5617;54.046;10.676;2023-07-13T09:22:33;1.30;;;0.80;;
11125;SDS011;5617;54.046;10.676;2023-07-13T09:24:49;1.20;;;0.70;;
11125;SDS011;5617;54.046;10.676;2023-07-13T09:27:01;4.00;;;1.00;;
11125;SDS011;5617;54.046;10.676;2023-07-13T09:29:21;2.70;;;0.90;;
11125;SDS011;5617;54.046;10.676;2023-07-13T09:31:34;2.33;;;1.00;;
11125;SDS011;5617;54.046;10.676;2023-07-13T09:33:46;1.87;;;0.97;;
11125;SDS011;5617;54.046;10.676;2023-07-13T09:36:01;2.53;;;1.07;;
11125;SDS011;5617;54.046;10.676;2023-07-13T09:38:20;2.43;;;0.90;;
11125;SDS011;5617;54.046;10.676;2023-07-13T09:40:36;1.73;;;0.90;;
11125;SDS011;5617;54.046;10.676;2023-07-13T09:42:49;3.63;;;1.10;;
11125;SDS011;5617;54.046;10.676;2023-07-13T09:44:59;3.27;;;1.00;;
11125;SDS011;5617;54.046;10.676;2023-07-13T09:47:15;1.70;;;1.10;;
11125;SDS011;5617;54.046;10.676;2023-07-13T09:49:25;2.43;;;1.10;;
11125;SDS011;5617;54.046;10.676;2023-07-13T09:51:36;2.20;;;0.97;;
11125;SDS011;5617;54.046;10.676;2023-07-13T09:53:45;2.83;;;1.00;;
11125;SDS011;5617;54.046;10.676;2023-07-13T09:55:53;2.70;;;1.07;;
11125;SDS011;5617;54.046;10.676;2023-07-13T09:58:04;1.80;;;0.90;;
11125;SDS011;5617;54.046;10.676;2023-07-13T10:00:20;3.40;;;0.83;;
11125;SDS011;5617;54.046;10.676;2023-07-13T10:02:31;3.50;;;1.00;;
11125;SDS011;5617;54.046;10.676;2023-07-13T10:04:41;3.07;;;1.00;;
11125;SDS011;5617;54.046;10.676;2023-07-13T10:06:52;1.90;;;1.00;;
11125;SDS011;5617;54.046;10.676;2023-07-13T10:09:29;2.33;;;1.10;;
11125;SDS011;5617;54.046;10.676;2023-07-13T10:11:39;2.17;;;1.27;;
11125;SDS011;5617;54.046;10.676;2023-07-13T10:13:50;2.97;;;1.10;;
11125;SDS011;5617;54.046;10.676;2023-07-13T10:16:00;3.17;;;1.00;;
11125;SDS011;5617;54.046;10.676;2023-07-13T10:18:08;2.70;;;1.13;;
11125;SDS011;5617;54.046;10.676;2023-07-13T10:20:23;2.10;;;1.10;;
11125;SDS011;5617;54.046;10.676;2023-07-13T10:22:39;2.10;;;1.40;;
11125;SDS011;5617;54.046;10.676;2023-07-13T10:24:53;2.63;;;1.10;;
11125;SDS011;5617;54.046;10.676;2023-07-13T10:27:04;1.00;;;0.90;;
11125;SDS011;5617;54.046;10.676;2023-07-13T10:29:19;2.97;;;1.30;;
11125;SDS011;5617;54.046;10.676;2023-07-13T10:31:29;2.23;;;1.30;;
11125;SDS011;5617;54.046;10.676;2023-07-13T10:33:38;1.20;;;1.10;;
11125;SDS011;5617;54.046;10.676;2023-07-13T10:35:48;1.93;;;1.10;;
11125;SDS011;5617;54.046;10.676;2023-07-13T10:38:04;2.23;;;1.10;;
11125;SDS011;5617;54.046;10.676;2023-07-13T10:40:16;2.90;;;1.30;;
11125;SDS011;5617;54.046;10.676;2023-07-13T10:42:29;2.50;;;1.13;;
11125;SDS011;5617;54.046;10.676;2023-07-13T10:44:41;3.80;;;1.40;;
11125;SDS011;5617;54.046;10.676;2023-07-13T10:46:49;2.23;;;1.37;;
11125;SDS011;5617;54.046;10.676;2023-07-13T10:48:58;2.90;;;1.20;;
11125;SDS011;5617;54.046;10.676;2023-07-13T10:51:09;4.13;;;1.53;;
11125;SDS011;5617;54.046;10.676;2023-07-13T10:53:21;2.10;;;1.10;;
11125;SDS011;5617;54.046;10.676;2023-07-13T10:55:38;3.47;;;1.30;;
11125;SDS011;5617;54.046;10.676;2023-07-13T10:57:48;2.20;;;1.27;;
11125;SDS011;5617;54.046;10.676;2023-07-13T11:00:14;3.37;;;1.30;;
11125;SDS011;5617;54.046;10.676;2023-07-13T11:02:25;3.47;;;1.47;;
11125;SDS011;5617;54.046;10.676;2023-07-13T11:04:40;2.77;;;1.10;;
11125;SDS011;5617;54.046;10.676;2023-07-13T11:06:52;2.47;;;1.37;;
11125;SDS011;5617;54.046;10.676;2023-07-13T11:09:17;4.93;;;1.43;;
11125;SDS011;5617;54.046;10.676;2023-07-13T11:11:38;3.37;;;1.10;;
11125;SDS011;5617;54.046;10.676;2023-07-13T11:13:56;4.03;;;1.40;;
11125;SDS011;5617;54.046;10.676;2023-07-13T11:16:12;6.63;;;1.57;;
11125;SDS011;5617;54.046;10.676;2023-07-13T11:18:22;3.97;;;1.50;;
11125;SDS011;5617;54.046;10.676;2023-07-13T11:20:33;2.67;;;1.37;;
11125;SDS011;5617;54.046;10.676;2023-07-13T11:22:50;2.87;;;1.40;;
11125;SDS011;5617;54.046;10.676;2023-07-13T11:25:02;4.03;;;1.73;;
11125;SDS011;5617;54.046;10.676;2023-07-13T11:27:37;4.10;;;1.87;;
11125;SDS011;5617;54.046;10.676;2023-07-13T11:29:48;5.33;;;1.60;;
11125;SDS011;5617;54.046;10.676;2023-07-13T11:31:57;4.70;;;1.87;;
11125;SDS011;5617;54.046;10.676;2023-07-13T11:34:09;3.17;;;1.90;;
11125;SDS011;5617;54.046;10.676;2023-07-13T11:36:24;4.00;;;1.80;;
11125;SDS011;5617;54.046;10.676;2023-07-13T11:38:38;3.73;;;1.80;;
11125;SDS011;5617;54.046;10.676;2023-07-13T11:40:51;4.27;;;1.93;;
11125;SDS011;5617;54.046;10.676;2023-07-13T11:43:03;4.53;;;2.07;;
11125;SDS011;5617;54.046;10.676;2023-07-13T11:45:19;5.07;;;2.40;;
11125;SDS011;5617;54.046;10.676;2023-07-13T11:47:42;2.57;;;1.67;;
11125;SDS011;5617;54.046;10.676;2023-07-13T11:49:52;3.13;;;1.73;;
11125;SDS011;5617;54.046;10.676;2023-07-13T11:52:03;4.10;;;2.20;;
11125;SDS011;5617;54.046;10.676;2023-07-13T11:54:17;4.83;;;2.20;;
11125;SDS011;5617;54.046;10.676;2023-07-13T11:56:33;4.03;;;2.00;;
11125;SDS011;5617;54.046;10.676;2023-07-13T11:58:41;4.80;;;1.90;;
11125;SDS011;5617;54.046;10.676;2023-07-13T12:00:49;3.53;;;2.30;;
11125;SDS011;5617;54.046;10.676;2023-07-13T12:02:59;3.07;;;1.80;;
11125;SDS011;5617;54.046;10.676;2023-07-13T12:05:11;4.47;;;2.13;;
11125;SDS011;5617;54.046;10.676;2023-07-13T12:07:22;1.60;;;1.50;;
11125;SDS011;5617;54.046;10.676;2023-07-13T12:09:30;3.43;;;1.60;;
11125;SDS011;5617;54.046;10.676;2023-07-13T12:11:41;4.30;;;2.00;;
11125;SDS011;5617;54.046;10.676;2023-07-13T12:13:50;2.47;;;1.60;;
11125;SDS011;5617;54.046;10.676;2023-07-13T12:15:59;3.63;;;1.80;;
11125;SDS011;5617;54.046;10.676;2023-07-13T12:18:11;2.37;;;1.30;;
11125;SDS011;5617;54.046;10.676;2023-07-13T12:20:21;3.17;;;1.60;;
11125;SDS011;5617;54.046;10.676;2023-07-13T12:22:32;1.97;;;1.20;;
11125;SDS011;5617;54.046;10.676;2023-07-13T12:24:40;2.13;;;1.30;;
11125;SDS011;5617;54.046;10.676;2023-07-13T12:26:54;3.20;;;1.20;;
11125;SDS011;5617;54.046;10.676;2023-07-13T12:29:06;2.10;;;1.10;;
11125;SDS011;5617;54.046;10.676;2023-07-13T12:31:22;2.10;;;1.10;;
11125;SDS011;5617;54.046;10.676;2023-07-13T12:33:33;2.27;;;1.00;;
11125;SDS011;5617;54.046;10.676;2023-07-13T12:35:46;2.83;;;1.07;;
11125;SDS011;5617;54.046;10.676;2023-07-13T12:37:56;1.37;;;1.00;;
11125;SDS011;5617;54.046;10.676;2023-07-13T12:40:12;0.90;;;0.60;;
11125;SDS011;5617;54.046;10.676;2023-07-13T12:42:24;1.43;;;1.03;;
11125;SDS011;5617;54.046;10.676;2023-07-13T12:44:34;1.37;;;0.80;;
11125;SDS011;5617;54.046;10.676;2023-07-13T12:46:52;1.87;;;0.80;;
11125;SDS011;5617;54.046;10.676;2023-07-13T12:49:05;3.47;;;0.73;;
11125;SDS011;5617;54.046;10.676;2023-07-13T12:51:30;4.37;;;0.90;;
11125;SDS011;5617;54.046;10.676;2023-07-13T12:53:38;1.43;;;0.80;;
11125;SDS011;5617;54.046;10.676;2023-07-13T12:55:49;2.10;;;0.97;;
11125;SDS011;5617;54.046;10.676;2023-07-13T12:58:03;1.70;;;0.80;;
11125;SDS011;5617;54.046;10.676;2023-07-13T13:00:22;1.57;;;0.73;;
11125;SDS011;5617;54.046;10.676;2023-07-13T13:02:32;1.37;;;0.80;;
11125;SDS011;5617;54.046;10.676;2023-07-13T13:04:41;0.70;;;0.70;;
11125;SDS011;5617;54.046;10.676;2023-07-13T13:06:58;1.77;;;1.10;;
11125;SDS011;5617;54.046;10.676;2023-07-13T13:09:09;3.00;;;1.20;;